createdAt,value
2019-03-16T00:05:03.000Z,20.2
2019-03-16T00:15:02.000Z,20.2
2019-03-16T00:25:02.000Z,20.2
2019-03-16T00:35:02.000Z,20.1
2019-03-16T00:45:05.000Z,20.2
2019-03-16T00:55:02.000Z,20.1
2019-03-16T01:15:02.000Z,20.2
2019-03-16T01:25:02.000Z,20.2
2019-03-16T01:35:02.000Z,20.2
2019-03-16T01:45:02.000Z,20.1
2019-03-16T01:55:02.000Z,20.1
2019-03-16T02:05:02.000Z,20.3
2019-03-16T02:15:02.000Z,20.3
2019-03-16T02:25:02.000Z,20.3
2019-03-16T02:35:04.000Z,20.3
2019-03-16T02:45:02.000Z,20.3
2019-03-16T02:55:02.000Z,20.3
2019-03-16T03:05:02.000Z,20.3
2019-03-16T03:15:02.000Z,20.3
2019-03-16T03:25:02.000Z,20.3
2019-03-16T03:35:02.000Z,20.3
2019-03-16T03:45:02.000Z,20.4
2019-03-16T03:55:02.000Z,20.3
2019-03-16T04:05:02.000Z,20.3
2019-03-16T04:15:02.000Z,20.3
2019-03-16T04:25:02.000Z,20.3
2019-03-16T04:35:02.000Z,20.3
2019-03-16T04:45:02.000Z,20.2
2019-03-16T04:55:02.000Z,20.3
2019-03-16T05:05:02.000Z,19.4
2019-03-16T05:15:02.000Z,18.8
2019-03-16T05:25:02.000Z,18.5
2019-03-16T05:35:02.000Z,18.2
2019-03-16T05:45:02.000Z,18
2019-03-16T05:55:02.000Z,17.8
2019-03-16T06:05:02.000Z,17.6
2019-03-16T06:15:02.000Z,17.6
2019-03-16T06:25:02.000Z,17.5
2019-03-16T06:35:02.000Z,17.5
2019-03-16T06:45:02.000Z,17.4
2019-03-16T06:55:02.000Z,17.3
2019-03-16T07:05:02.000Z,17.2
2019-03-16T07:15:05.000Z,17.2
2019-03-16T07:25:03.000Z,17.1
2019-03-16T07:35:03.000Z,17.1
2019-03-16T07:45:03.000Z,17
2019-03-16T07:55:03.000Z,17
2019-03-16T08:05:03.000Z,17
2019-03-16T08:15:03.000Z,17
2019-03-16T08:25:03.000Z,17
2019-03-16T08:35:03.000Z,16.9
2019-03-16T08:45:03.000Z,17
2019-03-16T08:55:03.000Z,17
2019-03-16T09:05:03.000Z,17.1
2019-03-16T09:15:03.000Z,17.1
2019-03-16T09:25:03.000Z,17.2
2019-03-16T09:35:03.000Z,17.3
2019-03-16T09:45:03.000Z,17.4
2019-03-16T09:55:03.000Z,17.5
2019-03-16T10:05:03.000Z,17.6
2019-03-16T10:15:03.000Z,17.8
2019-03-16T10:25:03.000Z,17.8
2019-03-16T10:35:03.000Z,18
2019-03-16T10:45:03.000Z,18.6
2019-03-16T10:55:03.000Z,19
2019-03-16T11:05:03.000Z,19.2
2019-03-16T11:15:03.000Z,19.4
2019-03-16T11:25:03.000Z,19.5
2019-03-16T11:35:03.000Z,19.6
2019-03-16T11:45:03.000Z,19.6
2019-03-16T11:55:03.000Z,19.7
2019-03-16T12:05:03.000Z,19.8
2019-03-16T12:15:03.000Z,19.8
2019-03-16T12:25:03.000Z,19.9
2019-03-16T12:35:03.000Z,19.9
2019-03-16T12:45:03.000Z,19.9
2019-03-16T12:55:03.000Z,19.9
2019-03-16T13:05:03.000Z,20
2019-03-16T13:15:03.000Z,20
2019-03-16T13:25:03.000Z,20
2019-03-16T13:35:03.000Z,20.1
2019-03-16T13:45:03.000Z,20.2
2019-03-16T13:55:03.000Z,20.2
2019-03-16T14:05:04.000Z,20.2
2019-03-16T14:15:04.000Z,20.2
2019-03-16T14:25:04.000Z,20.2
2019-03-16T14:35:04.000Z,20.2
2019-03-16T14:45:05.000Z,20.2
2019-03-16T14:55:04.000Z,20.3
2019-03-16T15:05:04.000Z,20.3
2019-03-16T15:15:04.000Z,20.3
2019-03-16T15:25:04.000Z,20.3
2019-03-16T15:35:05.000Z,20.3
2019-03-16T15:45:04.000Z,20.3
2019-03-16T15:55:04.000Z,20.3
2019-03-16T16:05:04.000Z,20.4
2019-03-16T16:15:05.000Z,20.5
2019-03-16T16:25:04.000Z,20.5
2019-03-16T16:35:07.000Z,20.5
2019-03-16T16:45:04.000Z,20.5
2019-03-16T16:55:04.000Z,20.4
2019-03-16T17:05:04.000Z,20.4
2019-03-16T17:15:04.000Z,20.4
2019-03-16T17:25:04.000Z,20.6
2019-03-16T17:35:04.000Z,20.6
2019-03-16T17:45:04.000Z,20.5
2019-03-16T17:55:06.000Z,20.5
2019-03-16T18:05:04.000Z,20.6
2019-03-16T18:15:04.000Z,20.7
2019-03-16T18:25:04.000Z,20.7
2019-03-16T18:35:04.000Z,20.6
2019-03-16T18:45:04.000Z,20.6
2019-03-16T18:55:04.000Z,20.6
2019-03-16T19:05:04.000Z,20.6
2019-03-16T19:15:04.000Z,20.6
2019-03-16T19:25:04.000Z,20.6
2019-03-16T19:35:04.000Z,20.6
2019-03-16T19:45:04.000Z,20.7
2019-03-16T19:55:06.000Z,20.6
2019-03-16T20:05:04.000Z,20.6
2019-03-16T20:15:04.000Z,20.7
2019-03-16T20:25:04.000Z,20.7
2019-03-16T20:35:04.000Z,20.8
2019-03-16T20:45:04.000Z,20.8
2019-03-16T20:55:05.000Z,20.7
2019-03-16T21:05:05.000Z,20.7
2019-03-16T21:15:05.000Z,20.7
2019-03-16T21:25:05.000Z,20.7
2019-03-16T21:35:06.000Z,20.7
2019-03-16T21:45:05.000Z,20.7
2019-03-16T21:55:05.000Z,20.7
2019-03-16T22:05:05.000Z,20.7
2019-03-16T22:15:05.000Z,20.7
2019-03-16T22:25:05.000Z,20.7
2019-03-16T22:35:05.000Z,20.7
2019-03-16T22:45:05.000Z,20.8
2019-03-16T22:55:05.000Z,20.7
2019-03-16T23:05:05.000Z,20.7
2019-03-16T23:15:05.000Z,20.7
2019-03-16T23:25:05.000Z,20.7
2019-03-16T23:35:05.000Z,20.7
2019-03-16T23:45:05.000Z,20.7
2019-03-16T23:55:05.000Z,20.7
